Terminal Aerodrome Forecast
Issued by NWS Wilmington, NC

Home | Current Version | Previous Version | Text Only | Print | Product List | Glossary On
Versions: 1 2 3 4 5 6 7 8 9 10 11 12 13 14 15 16 17 18 19 20 21
000
FTUS42 KILM 041726
TAFILM
TAF
KILM 041726Z 0418/0518 24010KT P6SM VCSH SCT035
      TEMPO 0419/0423 6SM SHRA BKN035
     FM050100 29003KT P6SM FEW040 SCT070
      TEMPO 0505/0509 4SM BR
     FM051200 27009KT P6SM SCT060=

USA.gov is the U.S. government's official web portal to all federal, state and local government web resources and services.